ADDS TAF Data INFO
IDs: Format: Raw Decoded Include METARs

Data at: 0932 UTC 17 Aug 2018

KECP 170531Z 1706/1806 VRB05KT P6SM VCSH SCT040
  FM171100 16006KT P6SM SCT015 BKN025
  FM171600 19008KT P6SM VCTS BKN035CB OVC120
  FM172300 20005KT P6SM SCT050 BKN250